Time;durP1;ratioP1;P1;durP2;ratioP2;P2;SDS_P1;SDS_P2;PMS_P1;PMS_P2;Temp;Humidity;BMP_temperature;BMP_pressure;BME280_temperature;BME280_humidity;BME280_pressure;Samples;Min_cycle;Max_cycle;Signal;HPM_P1;HPM_P2
2023/02/10 00:01:14;;;;;;;36.13;19.88;;;;;;;2.71;100.00;103483.66;5019364;28;20056;-62
2023/02/10 00:03:41;;;;;;;33.08;19.75;;;;;;;2.71;100.00;103487.09;5024946;28;20062;-64
2023/02/10 00:06:09;;;;;;;41.28;21.25;;;;;;;2.74;100.00;103489.63;5021975;28;20045;-62
2023/02/10 00:08:36;;;;;;;37.40;20.83;;;;;;;2.71;100.00;103487.09;5027546;28;20084;-62
2023/02/10 00:11:04;;;;;;;37.97;20.58;;;;;;;2.75;100.00;103496.50;5033127;28;20123;-62
2023/02/10 00:13:31;;;;;;;;;;;;;;;2.80;100.00;103496.41;5044301;28;20060;-63
2023/02/10 00:15:59;;;;;;;28.55;18.30;;;;;;;2.75;100.00;103491.31;5034765;28;19925;-64
2023/02/10 00:18:27;;;;;;;48.72;22.48;;;;;;;2.75;100.00;103488.75;5023907;28;20077;-63
2023/02/10 00:20:54;;;;;;;44.90;22.67;;;;;;;2.75;100.00;103493.06;5038206;28;20057;-63
2023/02/10 00:23:20;;;;;;;46.30;24.20;;;;;;;2.74;100.00;103491.34;5036838;28;20525;-63
2023/02/10 00:25:47;;;;;;;54.47;23.83;;;;;;;2.73;100.00;103498.28;5033826;28;20056;-63
2023/02/10 00:28:14;;;;;;;52.85;23.30;;;;;;;2.73;100.00;103500.03;5038486;28;20041;-65
2023/02/10 00:30:40;;;;;;;46.85;22.63;;;;;;;2.76;100.00;103498.22;5036419;28;20173;-65
2023/02/10 00:33:06;;;;;;;41.38;22.23;;;;;;;2.75;100.00;103504.28;5018936;28;20057;-65
2023/02/10 00:35:33;;;;;;;41.63;21.45;;;;;;;2.79;100.00;103509.44;5016692;28;22762;-65
2023/02/10 00:38:00;;;;;;;43.53;21.42;;;;;;;2.79;100.00;103506.84;5033434;28;20406;-65
2023/02/10 00:40:26;;;;;;;39.70;19.85;;;;;;;2.80;100.00;103505.94;5036244;28;20115;-65
2023/02/10 00:42:52;;;;;;;45.92;21.02;;;;;;;2.76;100.00;103508.59;5040060;28;20517;-64
2023/02/10 00:45:19;;;;;;;40.25;21.48;;;;;;;2.79;100.00;103505.09;5016855;28;20049;-64
2023/02/10 00:47:46;;;;;;;42.50;20.73;;;;;;;2.78;100.00;103505.97;5020996;28;20060;-64
2023/02/10 00:50:13;;;;;;;33.10;20.77;;;;;;;2.78;100.00;103508.56;5041927;28;20057;-64
2023/02/10 00:52:39;;;;;;;36.70;20.98;;;;;;;2.71;100.00;103514.75;5022304;28;20040;-64
2023/02/10 00:55:06;;;;;;;41.33;20.77;;;;;;;2.71;100.00;103506.97;5036053;28;20053;-64
2023/02/10 00:57:32;;;;;;;47.40;22.67;;;;;;;2.69;100.00;103501.81;5033196;28;20476;-64
2023/02/10 00:59:58;;;;;;;44.63;23.67;;;;;;;2.65;100.00;103507.09;5028787;28;20053;-64
2023/02/10 01:02:25;;;;;;;39.97;23.00;;;;;;;2.62;100.00;103515.75;5026387;28;20760;-64
2023/02/10 01:04:51;;;;;;;47.60;24.33;;;;;;;2.56;100.00;103515.88;5030215;28;20709;-65
2023/02/10 01:07:18;;;;;;;51.08;23.92;;;;;;;2.52;100.00;103520.25;5026124;28;20413;-65
2023/02/10 01:09:47;;;;;;;44.35;22.67;;;;;;;2.55;100.00;103530.59;5035380;28;20061;-65
2023/02/10 01:12:14;;;;;;;47.50;23.80;;;;;;;2.53;100.00;103524.56;5030138;28;20056;-65
2023/02/10 01:14:40;;;;;;;66.53;24.17;;;;;;;2.51;100.00;103523.75;5024512;28;20059;-65
2023/02/10 01:17:07;;;;;;;92.20;24.85;;;;;;;2.49;100.00;103525.53;5023456;28;20049;-65
2023/02/10 01:19:33;;;;;;;122.63;23.48;;;;;;;2.46;100.00;103532.47;5026401;28;20076;-65
2023/02/10 01:21:59;;;;;;;44.08;23.55;;;;;;;2.50;100.00;103544.50;5035359;28;20063;-65
2023/02/10 01:24:26;;;;;;;80.13;24.85;;;;;;;2.49;100.00;103535.88;5029803;28;20049;-65
2023/02/10 01:26:52;;;;;;;69.45;24.17;;;;;;;2.46;100.00;103540.25;5026809;28;20068;-65
2023/02/10 01:29:19;;;;;;;87.18;27.45;;;;;;;2.47;100.00;103535.06;5025389;28;20057;-65
2023/02/10 01:31:45;;;;;;;66.85;25.45;;;;;;;2.46;100.00;103535.06;5021907;28;20437;-65
2023/02/10 01:34:12;;;;;;;107.78;25.73;;;;;;;2.44;100.00;103531.66;5031983;28;20057;-65
2023/02/10 01:36:38;;;;;;;84.93;24.35;;;;;;;2.41;100.00;103535.16;5025952;28;20844;-65
2023/02/10 01:39:05;;;;;;;61.72;25.63;;;;;;;2.37;100.00;103529.19;5019180;28;20128;-65
2023/02/10 01:41:31;;;;;;;52.72;25.40;;;;;;;2.40;100.00;103528.25;5019815;28;20053;-65
2023/02/10 01:44:05;;;;;;;59.05;24.95;;;;;;;2.43;100.00;103525.63;5023032;28;20414;-65
2023/02/10 01:46:34;;;;;;;53.28;24.27;;;;;;;2.45;100.00;103525.56;5042627;28;20044;-65
2023/02/10 01:49:07;;;;;;;70.90;22.33;;;;;;;2.39;100.00;103521.34;5034620;28;20107;-65
2023/02/10 01:51:41;;;;;;;77.32;24.50;;;;;;;2.39;100.00;103516.19;5033975;28;20068;-65
2023/02/10 01:54:13;;;;;;;76.47;25.70;;;;;;;2.28;100.00;103515.53;5027125;28;20049;-65
2023/02/10 01:56:41;;;;;;;70.78;25.05;;;;;;;2.24;100.00;103519.91;5032310;28;20049;-65
2023/02/10 01:59:08;;;;;;;52.33;25.98;;;;;;;2.24;100.00;103525.09;5034003;28;20060;-65
2023/02/10 02:01:34;;;;;;;65.47;26.52;;;;;;;2.27;100.00;103521.59;5031880;28;20056;-64
2023/02/10 02:04:01;;;;;;;46.35;24.52;;;;;;;2.28;100.00;103528.47;5025030;28;20064;-65
2023/02/10 02:06:28;;;;;;;50.10;23.70;;;;;;;2.28;100.00;103521.56;5038336;28;20635;-63
2023/02/10 02:08:55;;;;;;;45.50;24.42;;;;;;;2.30;100.00;103530.16;5011819;28;20056;-64
2023/02/10 02:11:43;;;;;;;96.38;24.63;;;;;;;2.32;100.00;103525.81;5032309;28;20060;-64
2023/02/10 02:14:26;;;;;;;56.78;24.55;;;;;;;2.32;100.00;103525.81;5032798;28;20053;-63
2023/02/10 02:16:59;;;;;;;42.42;24.08;;;;;;;2.35;100.00;103532.66;5032332;28;20055;-63
2023/02/10 02:20:40;;;;;;;64.88;25.08;;;;;;;2.35;100.00;103535.25;5017965;28;20064;-63
2023/02/10 02:23:06;;;;;;;68.00;24.88;;;;;;;2.36;100.00;103534.38;5030508;28;20057;-64
2023/02/10 02:25:42;;;;;;;78.60;23.58;;;;;;;2.33;100.00;103534.41;5024386;28;20049;-64
2023/02/10 02:28:42;;;;;;;153.40;27.52;;;;;;;2.28;100.00;103539.69;5030487;28;20084;-63
2023/02/10 02:31:48;;;;;;;195.00;26.30;;;;;;;2.24;100.00;103539.78;5023061;28;20135;-64
2023/02/10 02:34:25;;;;;;;95.00;24.38;;;;;;;2.22;100.00;103536.38;5025416;28;20115;-64
2023/02/10 02:36:58;;;;;;;91.32;22.80;;;;;;;2.18;100.00;103539.00;5011201;28;20295;-65
2023/02/10 02:39:26;;;;;;;111.47;24.95;;;;;;;2.13;100.00;103532.16;5015566;28;20046;-64
2023/02/10 02:42:21;;;;;;;167.18;23.25;;;;;;;2.10;100.00;103527.91;5024822;28;20132;-64
2023/02/10 02:45:10;;;;;;;141.40;22.70;;;;;;;2.08;100.00;103533.97;5027294;28;20049;-64
2023/02/10 02:47:55;;;;;;;97.15;22.83;;;;;;;2.08;100.00;103539.16;5024547;28;20103;-63
2023/02/10 02:50:40;;;;;;;84.30;20.98;;;;;;;2.02;100.00;103531.47;5025066;28;20092;-64
2023/02/10 02:53:28;;;;;;;153.77;22.92;;;;;;;2.00;100.00;103531.53;5026220;28;20056;-63
2023/02/10 02:56:06;;;;;;;123.72;21.83;;;;;;;1.96;100.00;103532.44;5025890;28;20053;-64
2023/02/10 02:58:50;;;;;;;131.45;21.20;;;;;;;1.90;100.00;103541.16;5023955;28;20418;-64
2023/02/10 03:01:24;;;;;;;110.00;21.55;;;;;;;1.90;100.00;103550.66;5026857;28;20080;-64
2023/02/10 03:03:53;;;;;;;98.78;19.63;;;;;;;1.83;100.00;103554.22;5001843;28;20059;-64
2023/02/10 03:06:20;;;;;;;74.55;20.10;;;;;;;1.78;100.00;103551.69;5023533;28;20496;-66
2023/02/10 03:08:47;;;;;;;51.17;19.83;;;;;;;1.75;100.00;103549.16;5026213;28;20050;-65
2023/02/10 03:11:13;;;;;;;60.85;20.13;;;;;;;1.71;100.00;103545.75;5022874;28;20132;-63
2023/02/10 03:13:39;;;;;;;131.55;20.50;;;;;;;1.64;100.00;103543.28;5028479;28;20056;-64
2023/02/10 03:16:06;;;;;;;50.50;18.58;;;;;;;1.62;100.00;103550.19;5022219;28;20049;-64
2023/02/10 03:18:32;;;;;;;79.13;19.67;;;;;;;1.58;100.00;103552.81;5027710;28;20489;-64
2023/02/10 03:20:59;;;;;;;85.45;20.38;;;;;;;1.54;100.00;103556.31;5024581;28;20053;-64
2023/02/10 03:23:25;;;;;;;78.32;20.48;;;;;;;1.53;100.00;103561.50;5029186;28;20464;-64
2023/02/10 03:25:52;;;;;;;56.40;20.17;;;;;;;1.48;100.00;103559.00;5030325;28;20084;-64
2023/02/10 03:28:18;;;;;;;59.08;20.67;;;;;;;1.46;100.00;103560.75;5023931;28;20053;-64
2023/02/10 03:30:49;;;;;;;50.58;19.55;;;;;;;1.43;100.00;103555.63;5028058;28;20825;-64
2023/02/10 03:33:16;;;;;;;43.83;19.23;;;;;;;1.40;100.00;103560.84;5017908;28;20053;-63
2023/02/10 03:35:44;;;;;;;35.58;19.02;;;;;;;1.39;100.00;103551.34;5027832;28;20410;-63
2023/02/10 03:38:12;;;;;;;;;;;;;;;1.37;100.00;103553.97;5020562;28;20049;-63
2023/02/10 03:40:39;;;;;;;38.55;17.63;;;;;;;1.29;100.00;103557.53;5028098;28;19932;-63
2023/02/10 03:43:05;;;;;;;52.15;19.20;;;;;;;1.23;100.00;103557.59;5028194;28;20099;-63
2023/02/10 03:45:32;;;;;;;45.45;19.42;;;;;;;1.16;100.00;103560.25;5015791;28;20057;-63
2023/02/10 03:47:58;;;;;;;42.75;19.52;;;;;;;1.14;100.00;103554.25;5031605;28;20801;-64
2023/02/10 03:50:25;;;;;;;37.35;18.58;;;;;;;1.14;100.00;103559.44;5032321;28;20592;-63
2023/02/10 03:52:51;;;;;;;48.80;19.65;;;;;;;1.12;100.00;103553.44;5036687;28;20057;-64
2023/02/10 03:55:19;;;;;;;35.47;18.60;;;;;;;1.13;100.00;103560.28;5031241;28;20052;-63
2023/02/10 03:57:45;;;;;;;30.20;18.73;;;;;;;1.13;100.00;103564.63;5036657;28;20105;-63
2023/02/10 04:00:14;;;;;;;41.13;19.70;;;;;;;1.08;100.00;103556.03;5043642;28;20056;-63
2023/02/10 04:02:40;;;;;;;28.98;18.83;;;;;;;1.06;100.00;103558.66;5039051;28;20079;-63
2023/02/10 04:05:07;;;;;;;39.28;18.65;;;;;;;1.02;100.00;103550.94;5006412;28;20516;-63
2023/02/10 04:07:33;;;;;;;33.25;19.00;;;;;;;0.97;100.00;103554.44;5031169;28;20057;-63
2023/02/10 04:10:00;;;;;;;31.88;19.27;;;;;;;0.99;100.00;103559.59;5030893;28;20067;-63
2023/02/10 04:12:26;;;;;;;44.08;18.95;;;;;;;0.95;100.00;103555.34;5033386;28;20083;-63
2023/02/10 04:14:53;;;;;;;31.38;18.20;;;;;;;0.98;100.00;103563.03;5026322;28;20494;-63
2023/02/10 04:17:19;;;;;;;30.00;18.85;;;;;;;0.93;100.00;103560.53;5024522;28;20056;-63
2023/02/10 04:19:45;;;;;;;34.50;18.52;;;;;;;0.90;100.00;103558.00;5029684;28;20633;-64
2023/02/10 04:22:12;;;;;;;32.90;18.88;;;;;;;0.89;100.00;103565.75;5033063;28;20049;-64
2023/02/10 04:24:38;;;;;;;32.50;18.70;;;;;;;0.83;100.00;103563.22;5030535;28;20053;-63
2023/02/10 04:27:05;;;;;;;45.40;19.25;;;;;;;0.74;100.00;103565.00;5032617;28;20056;-64
2023/02/10 04:29:31;;;;;;;31.55;19.30;;;;;;;0.72;100.00;103565.91;5023358;28;20053;-63
2023/02/10 04:31:58;;;;;;;33.67;19.10;;;;;;;0.73;100.00;103568.50;5038859;28;20052;-62
2023/02/10 04:34:24;;;;;;;30.27;19.17;;;;;;;0.70;100.00;103563.34;5031393;28;20085;-63
2023/02/10 04:36:51;;;;;;;30.95;18.92;;;;;;;0.65;100.00;103562.53;4998992;28;20055;-62
2023/02/10 04:39:18;;;;;;;26.40;17.20;;;;;;;0.67;100.00;103562.53;5037282;28;20049;-62
2023/02/10 04:41:44;;;;;;;27.10;17.83;;;;;;;0.67;100.00;103567.69;5022591;28;21097;-62
2023/02/10 04:44:10;;;;;;;27.90;18.38;;;;;;;0.63;100.00;103574.63;5038203;28;20098;-63
2023/02/10 04:46:37;;;;;;;28.65;16.92;;;;;;;0.59;100.00;103572.94;5027851;28;20406;-63
2023/02/10 04:49:03;;;;;;;27.48;17.60;;;;;;;0.57;100.00;103566.94;5038953;28;20812;-63
2023/02/10 04:51:30;;;;;;;26.15;16.80;;;;;;;0.58;100.00;103574.63;5024876;28;20053;-63
2023/02/10 04:53:56;;;;;;;30.67;18.00;;;;;;;0.56;100.00;103580.69;5019892;28;20057;-63
2023/02/10 04:56:22;;;;;;;30.13;17.88;;;;;;;0.56;100.00;103581.56;5040675;28;20045;-63
2023/02/10 04:58:49;;;;;;;28.38;17.48;;;;;;;0.58;100.00;103581.53;5022425;28;20111;-62
2023/02/10 05:01:15;;;;;;;34.70;19.60;;;;;;;0.62;100.00;103585.81;5030459;28;20057;-63
2023/02/10 05:03:42;;;;;;;35.60;20.25;;;;;;;0.65;100.00;103583.22;5023356;28;20049;-64
2023/02/10 05:06:11;;;;;;;31.20;18.98;;;;;;;0.72;100.00;103590.00;5009894;28;20061;-62
2023/02/10 05:08:41;;;;;;;28.55;17.92;;;;;;;0.67;100.00;103586.63;5025245;28;20052;-62
2023/02/10 05:11:09;;;;;;;34.88;20.33;;;;;;;0.74;100.00;103590.84;5029323;28;20103;-64
2023/02/10 05:13:36;;;;;;;30.52;19.73;;;;;;;0.75;100.00;103592.56;5042399;28;20053;-64
2023/02/10 05:16:06;;;;;;;37.30;19.60;;;;;;;0.79;100.00;103589.09;5038370;28;20136;-65
2023/02/10 05:18:33;;;;;;;39.08;21.27;;;;;;;0.79;100.00;103585.66;5029735;28;20052;-64
2023/02/10 05:21:01;;;;;;;36.78;19.88;;;;;;;0.79;100.00;103577.91;5033534;28;20052;-65
2023/02/10 05:23:27;;;;;;;31.50;18.55;;;;;;;0.76;100.00;103578.78;5018668;28;20045;-64
2023/02/10 05:25:54;;;;;;;29.15;18.40;;;;;;;0.75;100.00;103582.25;5030828;28;20057;-64
2023/02/10 05:28:21;;;;;;;33.47;19.42;;;;;;;0.74;100.00;103584.84;5026940;28;20054;-65
2023/02/10 05:30:48;;;;;;;30.58;18.98;;;;;;;0.74;100.00;103583.09;5036204;28;20052;-64
2023/02/10 05:33:14;;;;;;;28.17;17.83;;;;;;;0.71;100.00;103579.72;5022841;28;20448;-61
2023/02/10 05:35:41;;;;;;;28.90;17.58;;;;;;;0.68;100.00;103579.72;5030130;28;20049;-64
2023/02/10 05:38:07;;;;;;;32.60;18.77;;;;;;;0.66;100.00;103579.75;5021754;28;20065;-65
2023/02/10 05:40:34;;;;;;;37.03;19.70;;;;;;;0.65;100.00;103579.75;5026554;28;20052;-64
2023/02/10 05:43:00;;;;;;;28.77;17.55;;;;;;;0.61;100.00;103589.28;5024513;28;20055;-65
2023/02/10 05:45:27;;;;;;;29.33;17.77;;;;;;;0.61;100.00;103594.44;5026495;28;20049;-65
2023/02/10 05:47:53;;;;;;;30.27;18.00;;;;;;;0.60;100.00;103582.38;5015744;28;20522;-64
2023/02/10 05:50:20;;;;;;;31.83;18.42;;;;;;;0.57;100.00;103583.28;5022023;28;20501;-62
2023/02/10 05:52:46;;;;;;;30.77;17.98;;;;;;;0.57;100.00;103588.44;5025197;28;20480;-65
2023/02/10 05:55:13;;;;;;;33.85;18.23;;;;;;;0.54;100.00;103588.47;5039514;28;20055;-65
2023/02/10 05:57:39;;;;;;;30.35;18.08;;;;;;;0.53;100.00;103589.34;5023535;28;20509;-64
2023/02/10 06:00:07;;;;;;;31.75;17.77;;;;;;;0.55;100.00;103590.19;5030553;28;20057;-64
2023/02/10 06:02:33;;;;;;;32.80;18.83;;;;;;;0.52;100.00;103597.09;5021535;28;20049;-65
2023/02/10 06:05:01;;;;;;;41.45;19.15;;;;;;;0.48;100.00;103591.09;5022047;28;20120;-65
2023/02/10 06:07:27;;;;;;;35.10;18.92;;;;;;;0.43;100.00;103587.69;5017888;28;20048;-64
2023/02/10 06:09:54;;;;;;;28.83;18.00;;;;;;;0.43;100.00;103586.84;5030406;28;20505;-64
2023/02/10 06:12:20;;;;;;;33.05;18.58;;;;;;;0.43;100.00;103582.53;5040676;28;20056;-64
2023/02/10 06:14:47;;;;;;;31.77;18.50;;;;;;;0.43;100.00;103582.53;5031856;28;20045;-64
2023/02/10 06:17:13;;;;;;;30.38;19.00;;;;;;;0.42;100.00;103577.41;5033898;28;20076;-65
2023/02/10 06:19:40;;;;;;;32.50;18.00;;;;;;;0.43;100.00;103579.94;5037665;28;20053;-63
2023/02/10 06:22:07;;;;;;;30.17;17.92;;;;;;;0.45;100.00;103579.94;5041790;28;20333;-64
2023/02/10 06:24:34;;;;;;;30.40;17.65;;;;;;;0.44;100.00;103583.41;5033643;28;20049;-65
2023/02/10 06:27:01;;;;;;;32.72;18.17;;;;;;;0.41;100.00;103579.09;5023359;28;20049;-65
2023/02/10 06:29:27;;;;;;;30.00;17.45;;;;;;;0.43;100.00;103585.09;5017196;28;20063;-66
2023/02/10 06:31:54;;;;;;;34.83;19.13;;;;;;;0.36;100.00;103576.56;5033522;28;20052;-65
2023/02/10 06:34:20;;;;;;;30.00;17.85;;;;;;;0.36;100.00;103586.03;5028966;28;20053;-64
2023/02/10 06:36:47;;;;;;;33.83;17.95;;;;;;;0.30;100.00;103581.78;5021566;28;20135;-65
2023/02/10 06:39:13;;;;;;;35.60;19.30;;;;;;;0.30;100.00;103584.38;5045440;28;20103;-64
2023/02/10 06:41:39;;;;;;;34.35;19.40;;;;;;;0.29;100.00;103589.53;5034615;28;20056;-66
2023/02/10 06:44:06;;;;;;;46.60;23.73;;;;;;;0.29;100.00;103592.13;5030519;28;20063;-64
2023/02/10 06:46:33;;;;;;;45.10;26.15;;;;;;;0.27;100.00;103592.13;5036543;28;20044;-64
2023/02/10 06:49:01;;;;;;;47.75;26.63;;;;;;;0.25;100.00;103593.84;5027116;28;20659;-64
2023/02/10 06:51:28;;;;;;;50.97;26.10;;;;;;;0.25;100.00;103596.44;5034727;28;20080;-64
2023/02/10 06:53:54;;;;;;;41.88;24.30;;;;;;;0.24;100.00;103594.75;5023633;28;20059;-64
2023/02/10 06:56:20;;;;;;;37.55;20.60;;;;;;;0.24;100.00;103599.06;5025822;28;20166;-64
2023/02/10 06:58:47;;;;;;;43.58;23.63;;;;;;;0.23;100.00;103605.06;5025663;28;20049;-64
2023/02/10 07:01:17;;;;;;;34.75;20.83;;;;;;;0.23;100.00;103600.75;5037588;28;20045;-64
2023/02/10 07:03:43;;;;;;;34.85;19.83;;;;;;;0.19;100.00;103596.50;5040103;28;20071;-64
2023/02/10 07:06:10;;;;;;;35.40;19.65;;;;;;;0.17;100.00;103606.81;5016847;28;20084;-64
2023/02/10 07:08:36;;;;;;;32.17;18.77;;;;;;;0.17;100.00;103606.81;5030267;28;20050;-64
2023/02/10 07:11:03;;;;;;;35.78;19.83;;;;;;;0.16;100.00;103593.94;5024438;28;20737;-64
2023/02/10 07:13:29;;;;;;;41.58;21.73;;;;;;;0.19;100.00;103593.91;5036227;28;20498;-64
2023/02/10 07:15:56;;;;;;;39.08;20.20;;;;;;;0.21;100.00;103607.66;5025357;28;20061;-65
2023/02/10 07:18:23;;;;;;;38.90;20.08;;;;;;;0.24;100.00;103610.22;5014825;28;20648;-65
2023/02/10 07:20:49;;;;;;;41.22;22.98;;;;;;;0.29;100.00;103617.94;5028488;28;20064;-64
2023/02/10 07:23:15;;;;;;;40.60;21.90;;;;;;;0.35;100.00;103617.88;5029391;28;20094;-64
2023/02/10 07:25:56;;;;;;;46.58;24.55;;;;;;;0.32;100.00;103610.19;5022685;28;20049;-64
2023/02/10 07:28:22;;;;;;;47.03;26.27;;;;;;;0.39;100.00;103612.69;5028836;28;20053;-65
2023/02/10 07:30:49;;;;;;;50.33;26.98;;;;;;;0.41;100.00;103612.66;5041715;28;20532;-64
2023/02/10 07:33:15;;;;;;;56.85;29.58;;;;;;;0.43;100.00;103610.94;5023262;28;20085;-64
2023/02/10 07:35:42;;;;;;;54.63;27.00;;;;;;;0.43;100.00;103625.56;5039249;28;20190;-65
2023/02/10 07:38:08;;;;;;;55.08;28.95;;;;;;;0.48;100.00;103623.81;5015207;28;20497;-65
2023/02/10 07:40:34;;;;;;;61.40;29.08;;;;;;;0.49;100.00;103628.09;5027193;28;20049;-65
2023/02/10 07:43:01;;;;;;;60.70;27.63;;;;;;;0.52;100.00;103634.09;5040890;28;20094;-65
2023/02/10 07:45:30;;;;;;;62.47;29.00;;;;;;;0.58;100.00;103626.31;5030656;28;20052;-64
2023/02/10 07:47:58;;;;;;;61.55;28.67;;;;;;;0.68;100.00;103632.25;5038326;28;20063;-64
2023/02/10 07:50:25;;;;;;;53.83;27.83;;;;;;;0.76;100.00;103634.78;5029809;28;20056;-64
2023/02/10 07:52:55;;;;;;;56.20;26.92;;;;;;;0.82;100.00;103629.53;5024283;28;20050;-64
2023/02/10 07:55:22;;;;;;;62.55;27.33;;;;;;;0.85;100.00;103632.09;5039333;28;20056;-64
2023/02/10 07:57:48;;;;;;;69.85;27.10;;;;;;;0.84;100.00;103637.28;5035802;28;20287;-65
2023/02/10 08:00:15;;;;;;;60.03;28.00;;;;;;;0.84;100.00;103645.88;5031940;28;20065;-64
2023/02/10 08:02:41;;;;;;;60.40;27.60;;;;;;;0.84;100.00;103653.63;5021487;28;20107;-65
2023/02/10 08:05:08;;;;;;;62.47;27.63;;;;;;;0.86;100.00;103658.81;5020914;28;20069;-65
2023/02/10 08:07:35;;;;;;;59.03;26.85;;;;;;;0.88;100.00;103657.94;5024798;28;20084;-64
2023/02/10 08:10:02;;;;;;;56.20;25.73;;;;;;;0.97;100.00;103657.84;5012899;28;20206;-64
2023/02/10 08:12:29;;;;;;;58.67;26.67;;;;;;;1.03;100.00;103669.00;5034356;28;20128;-64
2023/02/10 08:14:55;;;;;;;55.03;26.45;;;;;;;1.00;100.00;103667.31;5020665;28;20064;-64
2023/02/10 08:17:21;;;;;;;64.43;26.17;;;;;;;1.06;100.00;103679.28;5029054;28;20049;-65
2023/02/10 08:19:48;;;;;;;57.97;27.08;;;;;;;1.05;100.00;103690.53;5015266;28;20115;-64
2023/02/10 08:22:14;;;;;;;53.42;24.92;;;;;;;1.12;100.00;103685.28;5029913;28;20052;-64
2023/02/10 08:24:41;;;;;;;54.88;25.50;;;;;;;1.18;100.00;103697.28;5032842;28;20045;-64
2023/02/10 08:27:07;;;;;;;51.20;24.08;;;;;;;1.18;100.00;103700.72;5034392;28;20055;-64
2023/02/10 08:29:35;;;;;;;48.65;24.30;;;;;;;1.17;100.00;103695.56;5039832;28;20487;-64
2023/02/10 08:32:02;;;;;;;50.70;25.08;;;;;;;1.22;100.00;103692.97;5029013;28;20852;-64
2023/02/10 08:34:28;;;;;;;48.15;24.35;;;;;;;1.17;100.00;103704.16;5023723;28;20741;-63
2023/02/10 08:36:55;;;;;;;53.35;24.52;;;;;;;1.10;100.00;103688.75;5028964;28;20311;-64
2023/02/10 08:39:21;;;;;;;56.95;24.83;;;;;;;1.12;100.00;103667.19;5043255;28;20154;-66
2023/02/10 08:41:48;;;;;;;49.28;25.02;;;;;;;1.08;100.00;103683.59;5028033;28;20072;-64
2023/02/10 08:44:15;;;;;;;50.63;24.45;;;;;;;1.13;100.00;103673.19;5020170;28;20064;-64
2023/02/10 08:46:41;;;;;;;69.30;26.88;;;;;;;1.12;100.00;103674.09;5028852;28;20053;-64
2023/02/10 08:49:08;;;;;;;64.30;23.85;;;;;;;1.12;100.00;103680.09;5021449;28;20941;-65
2023/02/10 08:51:34;;;;;;;68.47;26.63;;;;;;;1.11;100.00;103680.97;5030175;28;20652;-64
2023/02/10 08:54:03;;;;;;;55.58;25.52;;;;;;;1.14;100.00;103678.38;5025945;28;20045;-64
2023/02/10 08:56:29;;;;;;;54.72;25.55;;;;;;;1.19;100.00;103675.72;5036511;28;20060;-64
2023/02/10 08:58:56;;;;;;;53.38;25.00;;;;;;;1.29;100.00;103671.31;5026309;28;20073;-64
2023/02/10 09:01:27;;;;;;;59.83;26.35;;;;;;;1.30;100.00;103680.78;5019131;28;20053;-65
2023/02/10 09:03:56;;;;;;;53.40;24.58;;;;;;;1.34;100.00;103678.16;5032553;28;20045;-65
2023/02/10 09:06:27;;;;;;;60.88;26.38;;;;;;;1.33;100.00;103685.91;5015474;28;20610;-65
2023/02/10 09:08:54;;;;;;;54.90;26.27;;;;;;;1.42;100.00;103688.41;5038434;28;20057;-64
2023/02/10 09:11:23;;;;;;;69.18;29.25;;;;;;;1.44;100.00;103684.09;5033986;28;20053;-65
2023/02/10 09:13:50;;;;;;;;;;;;;;;1.57;100.00;103682.22;5033291;28;20045;-65
2023/02/10 09:16:16;;;;;;;59.70;27.48;;;;;;;1.58;100.00;103686.50;5032391;28;19925;-65
2023/02/10 09:18:42;;;;;;;62.10;26.25;;;;;;;1.63;100.00;103684.75;5024814;28;20049;-67
2023/02/10 09:21:09;;;;;;;66.53;27.58;;;;;;;1.70;100.00;103691.53;5034885;28;20160;-64
2023/02/10 09:23:36;;;;;;;53.58;26.30;;;;;;;1.73;100.00;103690.66;5035445;28;20045;-65
2023/02/10 09:26:03;;;;;;;60.83;26.10;;;;;;;1.72;100.00;103689.78;5027571;28;20050;-65
2023/02/10 09:28:30;;;;;;;63.85;27.23;;;;;;;1.69;100.00;103702.78;5018182;28;20084;-66
2023/02/10 09:30:56;;;;;;;73.45;28.17;;;;;;;1.75;100.00;103700.13;5028828;28;20068;-65
2023/02/10 09:33:23;;;;;;;56.25;24.75;;;;;;;1.82;100.00;103687.09;5039832;28;20546;-65
2023/02/10 09:35:49;;;;;;;61.60;29.48;;;;;;;1.85;100.00;103682.75;5035458;28;20369;-65
2023/02/10 09:38:17;;;;;;;61.70;26.08;;;;;;;1.96;100.00;103685.16;5033983;28;20076;-65
2023/02/10 09:40:52;;;;;;;60.38;26.77;;;;;;;2.01;100.00;103688.56;5023791;28;20052;-65
2023/02/10 09:43:30;;;;;;;63.13;26.70;;;;;;;1.99;100.00;103685.16;5028291;28;20056;-66
2023/02/10 09:46:07;;;;;;;;;;;;;;;2.15;100.00;103685.78;5026950;28;20053;-65
2023/02/10 09:48:56;;;;;;;62.72;27.25;;;;;;;2.25;100.00;103694.28;5035656;28;20023;-66
2023/02/10 09:51:58;;;;;;;59.70;24.60;;;;;;;2.33;100.00;103687.25;5026473;28;20064;-66
2023/02/10 09:54:28;;;;;;;59.58;25.42;;;;;;;2.37;100.00;103687.22;5024696;28;20060;-66
2023/02/10 09:56:55;;;;;;;61.80;27.65;;;;;;;2.38;100.00;103693.25;5022463;28;20053;-65
2023/02/10 09:59:23;;;;;;;61.67;26.20;;;;;;;2.40;100.00;103688.88;5023874;28;20053;-65
2023/02/10 10:01:55;;;;;;;65.35;25.60;;;;;;;2.43;100.00;103693.16;5035487;28;20084;-65
2023/02/10 10:04:22;;;;;;;66.07;26.60;;;;;;;2.54;100.00;103699.88;5023715;28;20052;-66
2023/02/10 10:06:53;;;;;;;62.67;26.70;;;;;;;2.70;100.00;103694.47;5037461;28;20665;-65
2023/02/10 10:09:40;;;;;;;59.28;25.52;;;;;;;2.84;100.00;103702.03;5021636;28;20057;-65
2023/02/10 10:12:17;;;;;;;62.03;25.13;;;;;;;2.97;100.00;103704.38;5028438;28;20486;-64
2023/02/10 10:14:44;;;;;;;57.80;23.40;;;;;;;3.01;100.00;103704.34;5026022;28;20058;-65
2023/02/10 10:17:23;;;;;;;55.70;22.35;;;;;;;3.03;100.00;103698.22;5026771;28;20046;-66
2023/02/10 10:19:49;;;;;;;;;;;;;;;3.05;100.00;103693.88;5009769;28;20053;-66
2023/02/10 10:22:32;;;;;;;55.25;24.63;;;;;;;3.08;100.00;103692.97;5017000;28;19986;-66
2023/02/10 10:25:17;;;;;;;57.90;23.80;;;;;;;3.07;100.00;103693.84;5024956;28;20065;-65
2023/02/10 10:28:09;;;;;;;57.38;23.70;;;;;;;3.29;100.00;103689.13;5022065;28;20049;-66
2023/02/10 10:30:46;;;;;;;58.20;25.35;;;;;;;3.44;100.00;103686.25;5024780;28;20048;-65
2023/02/10 10:33:25;;;;;;;60.42;23.83;;;;;;;3.61;100.00;103690.22;5019217;28;20096;-65
2023/02/10 10:35:52;;;;;;;61.90;24.42;;;;;;;3.69;100.00;103683.16;5024019;28;20056;-67
2023/02/10 10:38:24;;;;;;;52.75;24.48;;;;;;;3.87;100.00;103692.31;5018831;28;20053;-65
2023/02/10 10:40:57;;;;;;;55.80;24.02;;;;;;;3.99;100.00;103680.81;5031987;28;20057;-65
2023/02/10 10:43:27;;;;;;;61.08;24.20;;;;;;;4.13;100.00;103684.78;5023852;28;20052;-66
2023/02/10 10:46:19;;;;;;;58.80;24.75;;;;;;;4.12;100.00;103675.31;5045782;28;20048;-65
2023/02/10 10:48:45;;;;;;;65.75;25.27;;;;;;;4.13;100.00;103669.22;5021583;28;20394;-66
2023/02/10 10:51:13;;;;;;;60.63;24.88;;;;;;;4.27;100.00;103663.72;5022953;28;20057;-67
2023/02/10 10:53:42;;;;;;;57.30;23.13;;;;;;;4.27;100.00;103657.66;5023926;28;20155;-65
2023/02/10 10:56:29;;;;;;;53.83;22.95;;;;;;;4.38;100.00;103657.41;5029429;28;20060;-66
2023/02/10 10:58:57;;;;;;;55.70;23.08;;;;;;;4.42;100.00;103657.28;5034294;28;20589;-65
2023/02/10 11:01:38;;;;;;;56.83;22.73;;;;;;;4.53;100.00;103650.09;5026341;28;20136;-66
2023/02/10 11:04:10;;;;;;;61.33;24.75;;;;;;;4.53;100.00;103657.06;5037530;28;20381;-66
2023/02/10 11:06:38;;;;;;;67.32;24.90;;;;;;;4.65;100.00;103653.28;5022136;28;20054;-65
2023/02/10 11:09:16;;;;;;;56.67;24.23;;;;;;;4.79;100.00;103655.53;5030988;28;20046;-66
2023/02/10 11:11:43;;;;;;;59.60;22.70;;;;;;;4.91;100.00;103661.25;5029605;28;20042;-66
2023/02/10 11:14:20;;;;;;;58.67;23.38;;;;;;;5.09;100.00;103661.69;5018273;28;20115;-66
2023/02/10 11:16:57;;;;;;;66.30;23.98;;;;;;;5.01;100.00;103664.47;5031467;28;20619;-66
2023/02/10 11:19:27;;;;;;;67.03;22.88;;;;;;;5.21;100.00;103647.47;5019036;28;20076;-66